AKDT,Max TemperatureF,Mean TemperatureF,Min TemperatureF,Max Dew PointF,MeanDew PointF,Min DewpointF,Max Humidity, Mean Humidity, Min Humidity, Max Sea Level PressureIn, Mean Sea Level PressureIn, Min Sea Level PressureIn, Max VisibilityMiles, Mean VisibilityMiles, Min VisibilityMiles, Max Wind SpeedMPH, Mean Wind SpeedMPH, Max Gust SpeedMPH,PrecipitationIn, CloudCover, Events, WindDirDegrees
2013-3-1,23,16,9,12,9,3,85,76,63,29.96,29.68,29.52,10,7,2,0,0,,0.01,8,Snow,-1
2013-3-2,19,10,0,10,2,-6,88,75,62,30.25,30.10,29.99,10,10,10,5,0,,0.00,6,,27
2013-3-3,17,3,-13,6,0,-20,83,73,62,30.55,30.40,30.20,10,9,4,5,0,,0.00,5,Snow,310
2013-3-4,21,2,-17,7,-10,-24,79,69,53,30.58,30.51,30.43,10,10,10,5,0,,0.00,0,,-1
2013-3-5,14,-3,-20,0,-14,-28,80,69,54,30.43,30.26,30.12,10,10,10,4,0,,0.00,0,,70
2013-3-6,24,3,-18,6,-6,-26,78,60,44,30.11,30.00,29.94,10,10,4,13,3,22,0.00,1,,123
2013-3-7,28,20,12,8,5,1,59,51,41,29.96,29.84,29.71,10,10,10,12,6,21,0.00,0,,116
2013-3-8,36,30,24,12,10,7,51,44,36,29.75,29.72,29.70,10,10,10,10,6,21,0.00,2,,117
2013-3-9,36,25,14,14,11,7,74,54,40,29.97,29.86,29.77,10,10,10,14,5,25,0.00,3,,124
2013-3-10,34,23,12,15,11,7,81,62,46,30.23,30.08,29.98,10,10,10,9,1,17,0.00,6,,146
2013-3-11,23,10,-9,12,2,-19,74,55,34,30.63,30.43,30.23,10,9,2,10,4,,0.00,6,Snow,2
2013-3-12,14,-5,-24,-10,-20,-31,78,60,34,30.68,30.58,30.43,10,10,10,4,0,,0.00,0,,95
2013-3-13,5,-10,-27,-14,-25,-35,74,58,34,30.50,30.39,30.34,10,10,10,14,2,21,0.00,2,,57
2013-3-14,3,-16,-34,-20,-26,-37,62,43,32,30.58,30.53,30.48,10,10,10,8,2,,0.00,0,,100
2013-3-15,6,-13,-32,-21,-28,-37,69,47,28,30.49,30.36,30.25,10,10,9,10,2,18,0.00,0,,93
2013-3-16,14,-6,-27,-14,-24,-35,69,50,27,30.32,30.28,30.24,10,10,10,6,1,,0.00,0,,90
2013-3-17,18,-4,-26,-11,-22,-34,70,55,27,30.35,30.27,30.14,10,10,10,5,0,,0.00,0,,170
2013-3-18,16,-6,-27,-7,-20,-34,70,57,32,30.14,30.07,30.01,10,10,10,6,0,,0.00,2,,100
2013-3-19,8,-8,-25,-13,-23,-32,74,57,36,30.19,30.13,30.09,10,10,10,7,1,,0.00,2,,357
2013-3-20,10,-12,-33,-16,-24,-36,69,49,30,30.11,30.05,29.97,10,10,10,9,2,17,0.00,0,,119
2013-3-21,15,-7,-29,-9,-18,-34,70,47,32,30.24,30.19,30.06,10,10,10,14,3,24,0.00,0,,129
2013-3-22,19,14,9,-5,-9,-11,40,35,29,30.20,30.08,29.94,10,10,10,17,9,30,0.00,3,,143
2013-3-23,27,14,0,9,2,-6,80,57,34,30.05,29.89,29.78,10,7,0,18,9,33,0.03,5,Snow,217
2013-3-24,14,2,-9,7,-3,-15,79,72,64,30.06,29.91,29.73,10,6,1,5,0,,0.02,7,Snow,15
2013-3-25,19,9,0,9,4,-7,80,71,57,29.74,29.50,29.39,10,5,0,12,3,18,0.12,6,Snow,300
2013-3-26,10,3,-6,5,-1,-11,79,67,56,30.14,29.83,29.51,10,6,1,9,5,16,0.00,7,Snow,322
2013-3-27,18,-4,-26,-3,-13,-33,75,59,39,30.25,30.21,30.16,10,10,10,7,1,,0.00,2,,120
2013-3-28,27,16,7,1,-2,-5,58,44,32,30.17,30.10,30.03,10,10,10,13,6,23,0.00,3,,128
2013-3-29,36,28,19,16,4,-1,56,36,27,30.03,30.00,29.96,10,10,10,13,5,20,0.00,5,,128
2013-3-30,42,34,25,20,18,12,72,54,41,30.18,30.09,29.98,10,10,10,10,4,21,0.00,5,,132
2013-3-31,42,28,14,22,17,10,84,65,43,30.24,30.19,30.12,10,10,10,6,1,,0.00,6,,94